Stations météo

réclame
Mon MeteoGroup
Dravagen, Suède (2317): Température de l'air & dewpoint: 05.12.2017 06:00:00 - 11.12.2017 06:00:00 (CET)Dravagen, Suède (2317): Vitesse du vent & gusts: 05.12.2017 06:00:00 - 11.12.2017 06:00:00 (CET)Dravagen, Suède (2317): Direction du vent: 05.12.2017 06:00:00 - 11.12.2017 06:00:00 (CET)Dravagen, Suède (2317): visibility: 05.12.2017 06:00:00 - 11.12.2017 06:00:00 (CET)Dravagen, Suède (2317): Quantités de précipitations: 05.12.2017 06:00:00 - 11.12.2017 06:00:00 (CET)
Date & Time tt [°C] td [°C] ff [km/h] ff [knt] fx [km/h] fx [knt] dd vv [km] rr [mm]
11.12.2017 06:00:00 -9,5 -10,6 0 0 3 2 N 42 0,0
11.12.2017 05:00:00 -10,0 -11,1 0 0 1 1 N 50 0,0
11.12.2017 04:00:00 -10,4 -11,4 0 0 2 1 N 50 0,1
11.12.2017 03:00:00 -10,2 -11,4 0 0 3 2 N 6 0,2
11.12.2017 02:00:00 -10,3 -11,5 0 0 2 1 N 48 0,0
11.12.2017 01:00:00 -10,6 -11,8 0 0 3 2 N 1,1 0,3
11.12.2017 00:00:00 -10,9 -12,1 0 0 8 5 N 50 0,0
10.12.2017 23:00:00 -10,9 -12,1 0 0 5 3 N 50 0,0
10.12.2017 22:00:00 -11,2 -12,4 2 1 5 3 E 50 0,0
10.12.2017 21:00:00 -11,5 -12,8 0 0 3 2 N 50 0,0
10.12.2017 20:00:00 -12,1 -13,4 0 0 5 3 N 50 0,0
10.12.2017 19:00:00 -12,5 -13,8 0 0 1 1 N 16 0,0
10.12.2017 18:00:00 -12,7 -14,1 0 0 4 2 N 7 0,1
10.12.2017 17:00:00 -14,2 -15,6 0 0 2 1 N 9 0,1
10.12.2017 16:00:00 -14,1 -15,7 2 1 3 2 WSW 2,8 0,2
10.12.2017 15:00:00 -15,5 -17,2 0 0 5 3 N 3,8 0,3
10.12.2017 14:00:00 -16,5 -18,2 0 0 4 2 N 17 0,0
10.12.2017 13:00:00 -17,4 -19,0 0 0 4 2 N 50 0,0
10.12.2017 12:00:00 -19,3 -21,2 0 0 4 2 N 50 0,0
10.12.2017 11:00:00 -19,6 -21,5 0 0 5 3 N 50 0,0
10.12.2017 10:00:00 -20,3 -22,2 0 0 6 3 N 50 0,0
10.12.2017 09:00:00 -20,9 -22,8 6 3 7 4 W 50 0,0
10.12.2017 08:00:00 -22,0 -24,1 4 2 6 3 WSW 50 0,0
10.12.2017 07:00:00 -20,3 -22,3 4 2 6 4 WSW 50 0,0
10.12.2017 06:00:00 -20,1 -22,0 0 0 7 4 N 50 0,0
10.12.2017 05:00:00 -19,6 -21,3 4 2 6 4 SW 50 0,0
10.12.2017 04:00:00 -18,2 -19,7 2 1 6 4 W 50 0,0
10.12.2017 03:00:00 -18,4 -20,0 3 2 8 4 W 50 0,0
10.12.2017 02:00:00 -17,0 -18,8 3 1 8 4 WSW 50 0,0
10.12.2017 01:00:00 -15,6 -17,0 7 4 10 5 WSW 50 0,0
10.12.2017 00:00:00 -15,6 -17,0 6 3 8 4 W 50 0,0
09.12.2017 23:00:00 -13,7 -15,1 0 0 8 4 N 50 0,0
09.12.2017 22:00:00 -12,4 -13,8 5 3 9 5 W 50 0,0
09.12.2017 21:00:00 -8,5 -9,3 4 2 9 5 W 50 0,0
09.12.2017 20:00:00 -9,7 -10,3 6 4 8 4 WSW 11 0,0
09.12.2017 19:00:00 -6,1 -6,5 2 1 15 8 WSW 50 0,0
09.12.2017 18:00:00 -3,9 -5,4 9 5 16 9 WNW 50 0,0
09.12.2017 17:00:00 -2,4 -3,8 5 3 11 6 S 50 0,0
09.12.2017 16:00:00 -2,2 -3,9 6 4 13 7 WSW 50 0,0
09.12.2017 15:00:00 -2,1 -3,8 7 4 16 9 WNW 50 0,1
09.12.2017 14:00:00 -1,5 -2,6 11 6 19 11 W 3,7 0,1
09.12.2017 13:00:00 -1,2 -2,6 10 5 29 16 WNW 10 0,1
09.12.2017 12:00:00 -1,6 -2,0 11 6 23 13 NW 1,6 0,9
09.12.2017 11:00:00 -5,2 -5,6 3 2 7 4 WNW 2,0 0,1
09.12.2017 10:00:00 -6,6 -7,1 0 0 6 3 N 3,4 0,2
09.12.2017 09:00:00 -7,2 -8,0 5 3 7 4 WSW 14 0,0
09.12.2017 08:00:00 -8,1 -8,9 0 0 5 3 N 50 0,0
09.12.2017 07:00:00 -9,2 -10,0 4 2 6 3 ENE 50 0,0
09.12.2017 06:00:00 -9,0 -9,8 4 2 10 6 NW 50 0,0
09.12.2017 05:00:00 -5,6 -5,9 0 0 6 3 N 50 0,0
09.12.2017 04:00:00 -5,5 -6,5 5 3 15 8 WSW 50 0,0
09.12.2017 03:00:00 -3,8 -4,8 11 6 20 11 W 50 0,0
09.12.2017 02:00:00 -3,2 -3,6 13 7 19 11 W 50 0,0
09.12.2017 01:00:00 -4,8 -5,3 0 0 7 4 N 49 0,0
09.12.2017 00:00:00 -5,0 -5,5 0 0 6 3 N 43 0,1
08.12.2017 23:00:00 -5,9 -6,3 0 0 8 5 N 50 0,0
08.12.2017 22:00:00 -5,6 -6,4 4 2 8 4 NW 50 0,0
08.12.2017 21:00:00 -2,7 -3,7 4 2 13 7 WNW 50 0,0
08.12.2017 20:00:00 -3,2 -4,0 0 0 5 3 N 50 0,0
08.12.2017 19:00:00 -2,5 -2,6 0 0 7 4 N 50 0,0
08.12.2017 18:00:00 -2,4 -3,0 0 0 11 6 N 50 0,0
08.12.2017 17:00:00 -1,2 -2,3 5 3 12 7 SW 27 0,0
08.12.2017 16:00:00 -1,1 -2,2 3 1 10 5 N 50 0,0
08.12.2017 15:00:00 -0,7 -2,0 6 4 13 7 SW 50 0,0
08.12.2017 14:00:00 -0,6 -1,7 7 4 15 8 SSW 50 0,0
08.12.2017 13:00:00 -0,5 -1,3 8 5 17 9 SSW 4,0 0,1
08.12.2017 12:00:00 -0,3 -1,1 7 4 18 10 SSW 3,3 0,0
08.12.2017 11:00:00 0,0 -1,4 9 5 26 14 SSW 14 0,0
08.12.2017 10:00:00 -0,1 -1,1 9 5 20 11 SSW 8 0,1
08.12.2017 09:00:00 0,0 -0,8 9 5 20 11 SSW 4,3 0,1
08.12.2017 08:00:00 0,3 -0,7 5 3 15 8 S 8 0,0
08.12.2017 07:00:00 0,1 -0,6 5 3 18 10 ESE 4,6 0,0
08.12.2017 06:00:00 0,5 -0,4 8 5 21 12 S 14 0,2
08.12.2017 05:00:00 0,7 -0,3 6 3 24 13 SE 20 0,1
08.12.2017 04:00:00 0,4 -0,3 12 6 29 16 S 2,7 0,0
08.12.2017 03:00:00 0,7 -0,8 13 7 31 17 S 3,3 0,1
08.12.2017 02:00:00 1,5 -1,4 13 7 36 19 S 8 0,0
08.12.2017 01:00:00 2,0 -1,6 18 10 43 23 S 18 0,0
08.12.2017 00:00:00 1,8 -1,3 18 10 46 25 SSW 14 0,0
07.12.2017 23:00:00 1,7 -0,4 18 10 44 24 SW 7 0,0
07.12.2017 22:00:00 2,4 0,0 17 9 40 22 SW 29 0,1
07.12.2017 21:00:00 3,1 1,0 14 8 29 16 SW 48 0,0
07.12.2017 20:00:00 3,9 1,9 14 8 38 20 SSW 50 0,0
07.12.2017 19:00:00 4,0 3,0 10 5 25 13 SSW 4,9 0,4
07.12.2017 18:00:00 3,7 3,3 9 5 21 11 S 15 0,0
07.12.2017 17:00:00 3,0 2,7 6 3 26 14 SSE 4,5 0,0
07.12.2017 16:00:00 2,4 2,3 11 6 22 12 S 3,9 0,0
07.12.2017 15:00:00 1,6 1,5 7 4 24 13 S 2,9 0,0
07.12.2017 14:00:00 0,8 0,8 7 4 15 8 S 2,5 0,0
07.12.2017 13:00:00 -1,5 -1,6 5 3 8 4 SSE 1,6 0,3
07.12.2017 12:00:00 -1,7 -1,8 4 2 9 5 SE 2,5 0,3
07.12.2017 11:00:00 -3,2 -3,5 0 0 9 5 N 1,3 0,1
07.12.2017 10:00:00 -3,4 -3,8 9 5 15 8 ENE 13 0,1
07.12.2017 09:00:00 -4,1 -4,8 7 4 12 7 E 3,0 0,6
07.12.2017 08:00:00 -4,5 -5,2 8 4 14 8 E 1,3 0,5
07.12.2017 07:00:00 -4,3 -5,0 10 6 17 9 E 4,4 0,2
07.12.2017 06:00:00 -4,5 -5,2 8 5 12 7 E 3,8 0,2
07.12.2017 05:00:00 -4,5 -5,2 6 3 12 7 ESE 1,9 0,6
07.12.2017 04:00:00 -4,7 -5,4 6 4 14 8 E 2,6 0,5
07.12.2017 03:00:00 -4,8 -5,3 8 5 12 7 ENE 2,0 0,4
07.12.2017 02:00:00 -4,9 -5,6 8 4 13 7 E 1,4 0,2
07.12.2017 01:00:00 -4,9 -5,6 7 4 12 6 E 3,7 0,2
07.12.2017 00:00:00 -4,9 -5,7 7 4 13 7 E 6 0,3
06.12.2017 23:00:00 -5,1 -5,8 5 3 9 5 E 1,5 0,8
06.12.2017 22:00:00 -5,6 -6,3 0 0 5 3 N 1,2 0,8
06.12.2017 21:00:00 -6,2 -7,1 0 0 5 3 N 1,7 0,3
06.12.2017 20:00:00 -6,5 -7,6 0 0 5 3 N 3,4 0,1
06.12.2017 19:00:00 -7,0 -8,2 0 0 4 2 N 50 0,0
06.12.2017 18:00:00 -7,6 -8,8 4 2 5 3 W 50 0,0
06.12.2017 17:00:00 -7,1 -8,3 0 0 6 3 N 50 0,0
06.12.2017 16:00:00 -6,6 -7,8 4 2 6 3 W 50 0,0
06.12.2017 15:00:00 -5,9 -8,0 4 2 9 5 W 50 0,0
06.12.2017 14:00:00 -4,7 -7,1 8 4 11 6 W 50 0,0
06.12.2017 13:00:00 -4,5 -7,1 9 5 14 8 WNW 50 0,0
06.12.2017 12:00:00 -4,3 -6,9 4 2 11 6 W 50 0,0
06.12.2017 11:00:00 -4,6 -7,2 5 3 10 5 SSW 50 0,0
06.12.2017 10:00:00 -5,2 -7,8 9 5 19 10 W 50 0,0
06.12.2017 09:00:00 -4,8 -7,1 14 7 18 10 W 50 0,0
06.12.2017 08:00:00 -4,0 -6,8 13 7 20 11 WNW 50 0,0
06.12.2017 07:00:00 -4,5 -7,1 6 4 23 13 SSW 50 0,0
06.12.2017 06:00:00 -5,1 -7,4 16 9 26 14 W 50 0,0
06.12.2017 05:00:00 -4,4 -7,2 15 8 27 15 WNW 50 0,0
06.12.2017 04:00:00 -4,9 -7,5 11 6 22 12 W 50 0,0
06.12.2017 03:00:00 -3,7 -6,6 16 8 32 17 WNW 50 0,0
06.12.2017 02:00:00 -3,7 -6,6 16 8 32 17 WNW 50 0,0
06.12.2017 01:00:00 -3,3 -6,6 18 10 34 18 WNW 50 0,0
06.12.2017 00:00:00 -3,7 -7,0 17 9 32 18 WNW 50 0,0
05.12.2017 23:00:00 -3,3 -6,8 19 10 35 19 WNW 50 0,0
05.12.2017 22:00:00 -3,7 -6,8 18 10 31 17 WNW 50 0,0
05.12.2017 21:00:00 -4,3 -7,2 17 9 26 14 WNW 50 0,0
05.12.2017 20:00:00 -5,1 -7,5 13 7 23 12 NW 50 0,0
05.12.2017 19:00:00 -6,9 -8,4 10 5 16 9 NW 50 0,0
05.12.2017 18:00:00 -8,1 -9,0 5 3 13 7 NW 50 0,0
05.12.2017 17:00:00 -5,6 -7,6 9 5 18 10 W 50 0,0
05.12.2017 16:00:00 -7,0 -8,2 8 5 18 10 W 50 0,0
05.12.2017 15:00:00 -4,7 -6,2 4 2 23 13 WSW 50 0,0
05.12.2017 14:00:00 -4,4 -6,2 11 6 24 13 W 50 0,0
05.12.2017 13:00:00 -2,8 -5,0 14 7 23 13 WNW 50 0,0
05.12.2017 12:00:00 -2,6 -4,6 16 8 29 16 W 50 0,0
05.12.2017 11:00:00 -2,4 -4,3 17 9 29 16 WNW 50 0,0
05.12.2017 10:00:00 -3,4 -4,7 11 6 17 9 W 6 0,0
05.12.2017 09:00:00 -3,5 -5,3 11 6 18 10 W 4,2 0,0
05.12.2017 08:00:00 -4,2 -6,3 11 6 26 14 WNW 50 0,0
05.12.2017 07:00:00 -5,5 -6,6 5 3 8 5 WSW 50 0,0
05.12.2017 06:00:00 -6,4 -7,3 5 3 8 4 W 50 0,0

tt = Température de l'air
td = dewpoint
ff = Vitesse du vent
fx = gusts
dd = Direction du vent
vv = visibility
rr = Quantités de précipitations

stations d'obs. à proximité